createdAt,value
2018-11-26T00:03:40.523Z,39.37
2018-11-26T00:07:42.926Z,46.27
2018-11-26T00:11:45.697Z,41.03
2018-11-26T00:15:48.106Z,43.70
2018-11-26T00:19:50.478Z,47.00
2018-11-26T00:23:52.877Z,40.47
2018-11-26T00:27:55.193Z,43.00
2018-11-26T00:31:57.566Z,44.77
2018-11-26T00:35:59.893Z,43.90
2018-11-26T00:40:02.248Z,42.90
2018-11-26T00:44:04.798Z,40.37
2018-11-26T00:48:07.191Z,45.40
2018-11-26T00:52:09.632Z,46.87
2018-11-26T00:56:12.076Z,42.90
2018-11-26T01:00:14.445Z,48.50
2018-11-26T01:04:16.810Z,41.50
2018-11-26T01:08:19.142Z,41.50
2018-11-26T01:12:21.546Z,47.43
2018-11-26T01:16:25.882Z,46.27
2018-11-26T01:20:28.251Z,43.20
2018-11-26T01:24:30.647Z,52.67
2018-11-26T01:28:33.055Z,49.97
2018-11-26T01:32:35.351Z,51.67
2018-11-26T01:36:37.760Z,60.10
2018-11-26T01:40:45.652Z,54.23
2018-11-26T01:44:47.995Z,53.57
2018-11-26T01:48:50.379Z,50.47
2018-11-26T01:52:52.788Z,55.13
2018-11-26T01:56:55.211Z,58.10
2018-11-26T02:00:57.552Z,53.47
2018-11-26T02:04:59.840Z,53.67
2018-11-26T02:09:02.316Z,53.33
2018-11-26T02:13:04.712Z,54.47
2018-11-26T02:17:07.042Z,55.00
2018-11-26T02:21:09.398Z,53.23
2018-11-26T02:25:11.754Z,48.70
2018-11-26T02:29:14.117Z,49.17
2018-11-26T02:33:16.469Z,41.07
2018-11-26T02:37:18.820Z,50.63
2018-11-26T02:41:21.147Z,50.97
2018-11-26T02:45:23.504Z,53.20
2018-11-26T02:49:25.851Z,54.00
2018-11-26T02:53:28.205Z,46.93
2018-11-26T02:57:30.510Z,49.67
2018-11-26T03:01:32.875Z,52.30
2018-11-26T03:05:35.228Z,50.40
2018-11-26T03:09:37.600Z,48.30
2018-11-26T03:13:39.942Z,52.97
2018-11-26T03:17:42.267Z,51.63
2018-11-26T03:21:44.586Z,52.20
2018-11-26T03:25:46.953Z,56.27
2018-11-26T03:29:49.296Z,55.63
2018-11-26T03:33:51.791Z,55.63
2018-11-26T03:37:54.100Z,56.23
2018-11-26T03:41:56.434Z,56.27
2018-11-26T03:45:58.755Z,60.43
2018-11-26T03:50:01.084Z,59.17
2018-11-26T03:54:03.486Z,55.30
2018-11-26T03:58:05.851Z,53.27
2018-11-26T04:02:08.246Z,59.37
2018-11-26T04:06:10.557Z,54.20
2018-11-26T04:10:13.443Z,51.57
2018-11-26T04:14:15.780Z,54.87
2018-11-26T04:18:18.095Z,57.80
2018-11-26T04:22:20.409Z,51.47
2018-11-26T04:26:22.774Z,50.93
2018-11-26T04:30:25.134Z,53.40
2018-11-26T04:34:27.455Z,54.53
2018-11-26T04:38:29.850Z,58.20
2018-11-26T04:42:32.204Z,69.47
2018-11-26T04:46:34.620Z,66.67
2018-11-26T04:50:36.959Z,65.07
2018-11-26T04:54:39.345Z,55.63
2018-11-26T04:58:41.765Z,58.57
2018-11-26T05:02:44.119Z,58.20
2018-11-26T05:06:46.558Z,54.17
2018-11-26T05:10:48.933Z,63.70
2018-11-26T05:14:51.319Z,53.73
2018-11-26T05:18:53.710Z,56.17
2018-11-26T05:22:56.016Z,49.47
2018-11-26T05:26:58.388Z,47.17
2018-11-26T05:31:00.848Z,60.87
2018-11-26T05:35:03.225Z,57.43
2018-11-26T05:39:07.706Z,52.70
2018-11-26T05:43:10.131Z,57.07
2018-11-26T05:47:12.440Z,57.10
2018-11-26T05:51:14.760Z,55.00
2018-11-26T05:55:17.054Z,57.83
2018-11-26T05:59:19.390Z,56.27
2018-11-26T06:03:21.745Z,55.80
2018-11-26T06:07:24.163Z,54.63
2018-11-26T06:11:26.569Z,52.47
2018-11-26T06:15:28.984Z,49.67
2018-11-26T06:19:31.474Z,57.90
2018-11-26T06:23:33.910Z,58.57
2018-11-26T06:27:36.443Z,57.87
2018-11-26T06:31:38.939Z,55.97
2018-11-26T06:35:41.333Z,56.77
2018-11-26T06:39:43.839Z,67.20
2018-11-26T06:43:46.223Z,54.40
2018-11-26T06:47:48.625Z,50.27
2018-11-26T06:51:50.982Z,58.13
2018-11-26T06:55:53.407Z,52.40
2018-11-26T06:59:55.848Z,65.00
2018-11-26T07:03:58.285Z,56.67
2018-11-26T07:08:01.139Z,56.60
2018-11-26T07:12:03.733Z,61.07
2018-11-26T07:16:06.108Z,59.67
2018-11-26T07:20:11.020Z,57.80
2018-11-26T07:24:13.411Z,61.93
2018-11-26T07:28:15.888Z,50.87
2018-11-26T07:32:18.319Z,45.10
2018-11-26T07:36:20.765Z,46.77
2018-11-26T07:40:23.098Z,45.37
2018-11-26T07:44:25.450Z,45.17
2018-11-26T07:48:27.783Z,43.60
2018-11-26T07:52:30.148Z,46.43
2018-11-26T07:56:32.539Z,48.43
2018-11-26T08:00:34.988Z,45.80
2018-11-26T08:04:37.569Z,44.83
2018-11-26T08:08:39.937Z,40.17
2018-11-26T08:12:42.557Z,42.60
2018-11-26T08:16:44.932Z,40.97
2018-11-26T08:20:47.311Z,38.17
2018-11-26T08:24:50.729Z,40.90
2018-11-26T08:28:53.050Z,34.17
2018-11-26T08:32:56.523Z,33.20
2018-11-26T08:37:04.999Z,35.90
2018-11-26T08:41:12.783Z,33.00
2018-11-26T08:45:24.603Z,35.23
2018-11-26T08:49:27.139Z,33.00
2018-11-26T08:53:29.769Z,32.73
2018-11-26T08:57:32.158Z,30.63
2018-11-26T09:01:39.129Z,31.77
2018-11-26T09:05:45.629Z,27.70
2018-11-26T09:09:48.000Z,30.13
2018-11-26T09:13:50.374Z,32.43
2018-11-26T09:17:52.869Z,28.80
2018-11-26T09:21:55.264Z,30.37
2018-11-26T09:25:57.594Z,30.37
2018-11-26T09:29:59.906Z,28.97
2018-11-26T09:34:02.309Z,32.20
2018-11-26T09:38:04.746Z,29.20
2018-11-26T09:42:07.108Z,27.80
2018-11-26T09:46:09.543Z,26.23
2018-11-26T09:50:15.996Z,32.60
2018-11-26T09:54:25.830Z,26.37
2018-11-26T09:58:21.052Z,27.73
2018-11-26T10:02:23.805Z,31.57
2018-11-26T10:06:26.199Z,22.50
2018-11-26T10:14:37.970Z,22.10
2018-11-26T10:18:40.073Z,23.80
2018-11-26T10:22:42.870Z,22.50
2018-11-26T10:26:45.341Z,21.73
2018-11-26T10:30:48.115Z,19.83
2018-11-26T10:34:50.574Z,21.97
2018-11-26T10:38:53.091Z,22.00
2018-11-26T10:42:55.512Z,17.63
2018-11-26T10:46:57.947Z,20.10
2018-11-26T10:51:00.329Z,20.63
2018-11-26T10:55:02.721Z,17.53
2018-11-26T10:59:05.182Z,21.13
2018-11-26T11:03:07.635Z,21.27
2018-11-26T11:07:10.076Z,21.47
2018-11-26T11:11:12.452Z,19.77
2018-11-26T11:15:15.424Z,17.63
2018-11-26T11:19:17.797Z,20.40
2018-11-26T11:23:20.143Z,21.67
2018-11-26T11:27:22.648Z,22.33
2018-11-26T11:31:25.089Z,19.80
2018-11-26T11:35:27.708Z,18.13
2018-11-26T11:39:30.015Z,23.97
2018-11-26T11:43:32.414Z,18.43
2018-11-26T11:47:34.839Z,18.67
2018-11-26T11:51:37.240Z,17.93
2018-11-26T11:55:39.580Z,17.13
2018-11-26T11:59:42.045Z,22.70
2018-11-26T12:03:44.600Z,20.83
2018-11-26T12:07:46.956Z,18.17
2018-11-26T12:11:49.344Z,22.20
2018-11-26T12:15:52.449Z,22.27
2018-11-26T12:19:54.874Z,22.33
2018-11-26T12:23:57.270Z,21.37
2018-11-26T12:27:59.666Z,20.80
2018-11-26T12:32:02.089Z,22.37
2018-11-26T12:36:05.095Z,27.00
2018-11-26T12:40:11.495Z,22.80
2018-11-26T12:44:13.884Z,24.10
2018-11-26T12:48:16.295Z,23.33
2018-11-26T12:52:18.734Z,25.53
2018-11-26T12:56:21.171Z,26.87
2018-11-26T13:00:24.870Z,27.93
2018-11-26T13:04:27.222Z,27.83
2018-11-26T13:08:29.585Z,26.23
2018-11-26T13:12:31.963Z,28.30
2018-11-26T13:16:34.499Z,28.43
2018-11-26T13:20:37.124Z,27.77
2018-11-26T13:24:39.836Z,25.80
2018-11-26T13:28:42.305Z,23.37
2018-11-26T13:32:46.274Z,29.67
2018-11-26T13:36:48.624Z,25.87
2018-11-26T13:40:50.986Z,24.87
2018-11-26T13:44:53.448Z,27.10
2018-11-26T13:48:55.847Z,29.33
2018-11-26T13:52:58.414Z,25.80
2018-11-26T13:57:00.806Z,28.80
2018-11-26T14:01:03.540Z,24.63
2018-11-26T14:05:08.725Z,29.10
2018-11-26T14:09:11.607Z,23.00
2018-11-26T14:13:14.833Z,24.17
2018-11-26T14:17:17.173Z,25.83
2018-11-26T14:21:19.791Z,24.97
2018-11-26T14:25:22.170Z,25.87
2018-11-26T14:29:24.840Z,23.60
2018-11-26T14:33:27.255Z,27.97
2018-11-26T14:37:29.886Z,28.20
2018-11-26T14:41:32.296Z,23.93
2018-11-26T14:45:34.682Z,24.83
2018-11-26T14:49:37.098Z,25.37
2018-11-26T14:53:39.534Z,27.17
2018-11-26T14:57:42.274Z,32.00
2018-11-26T15:01:44.714Z,30.93
2018-11-26T15:05:47.110Z,26.63
2018-11-26T15:09:49.561Z,26.27
2018-11-26T15:13:52.005Z,33.07
2018-11-26T15:17:54.435Z,30.73
2018-11-26T15:21:56.814Z,35.27
2018-11-26T15:25:59.149Z,32.50
2018-11-26T15:30:01.721Z,40.53
2018-11-26T15:34:04.694Z,34.73
2018-11-26T15:38:08.497Z,34.30
2018-11-26T15:42:10.839Z,35.43
2018-11-26T15:46:13.270Z,35.83
2018-11-26T15:50:15.631Z,37.47
2018-11-26T15:54:18.050Z,39.03
2018-11-26T15:58:23.670Z,36.20
2018-11-26T16:02:22.996Z,32.17
2018-11-26T16:06:25.343Z,36.93
2018-11-26T16:10:31.133Z,35.55
2018-11-26T16:14:33.689Z,37.23
2018-11-26T16:18:36.884Z,42.43
2018-11-26T16:22:39.419Z,41.40
2018-11-26T16:26:41.699Z,36.40
2018-11-26T16:30:44.063Z,43.40
2018-11-26T16:34:46.468Z,42.33
2018-11-26T16:38:48.898Z,38.60
2018-11-26T16:42:51.552Z,37.63
2018-11-26T16:46:53.889Z,41.17
2018-11-26T16:50:56.297Z,38.07
2018-11-26T16:54:58.709Z,40.20
2018-11-26T16:59:01.178Z,37.67
2018-11-26T17:03:03.657Z,46.43
2018-11-26T17:07:06.113Z,35.10
2018-11-26T17:11:08.522Z,41.73
2018-11-26T17:15:12.957Z,42.23
2018-11-26T17:19:15.340Z,42.03
2018-11-26T17:23:17.756Z,40.93
2018-11-26T17:27:20.164Z,39.63
2018-11-26T17:31:22.619Z,41.27
2018-11-26T17:35:25.067Z,42.20
2018-11-26T17:39:27.705Z,38.73
2018-11-26T17:43:30.915Z,39.07
2018-11-26T17:47:33.276Z,38.70
2018-11-26T17:51:35.875Z,40.67
2018-11-26T17:55:55.087Z,35.83
2018-11-26T17:59:58.386Z,31.73
2018-11-26T18:04:00.842Z,34.23
2018-11-26T18:08:20.132Z,42.43
2018-11-26T18:12:22.536Z,40.77
2018-11-26T18:16:24.984Z,36.77
2018-11-26T18:20:27.458Z,44.67
2018-11-26T18:24:29.878Z,41.93
2018-11-26T18:28:32.383Z,34.67
2018-11-26T18:32:34.806Z,32.43
2018-11-26T18:36:38.286Z,28.60
2018-11-26T18:40:42.117Z,35.37
2018-11-26T18:44:44.539Z,33.50
2018-11-26T18:48:46.958Z,33.70
2018-11-26T18:52:50.156Z,30.47
2018-11-26T18:56:52.695Z,32.33
2018-11-26T19:00:59.462Z,28.73
2018-11-26T19:05:01.872Z,29.10
2018-11-26T19:09:06.312Z,27.37
2018-11-26T19:13:14.123Z,29.80
2018-11-26T19:17:17.824Z,26.73
2018-11-26T19:21:20.203Z,29.03
2018-11-26T19:25:22.617Z,29.33
2018-11-26T19:29:25.082Z,28.03
2018-11-26T19:33:28.184Z,29.00
2018-11-26T19:37:30.592Z,32.10
2018-11-26T19:41:33.131Z,29.50
2018-11-26T19:45:35.911Z,27.90
2018-11-26T19:49:38.327Z,27.20
2018-11-26T19:53:41.033Z,32.27
2018-11-26T19:57:43.616Z,27.10
2018-11-26T20:01:47.121Z,24.07
2018-11-26T20:05:52.703Z,27.93
2018-11-26T20:09:55.083Z,29.37
2018-11-26T20:13:58.197Z,28.93
2018-11-26T20:18:00.607Z,29.37
2018-11-26T20:22:03.002Z,24.13
2018-11-26T20:26:05.781Z,34.00
2018-11-26T20:30:11.056Z,31.57
2018-11-26T20:34:14.838Z,29.37
2018-11-26T20:38:18.400Z,28.20
2018-11-26T20:42:20.937Z,30.27
2018-11-26T20:46:23.385Z,25.97
2018-11-26T20:50:27.055Z,29.03
2018-11-26T20:54:29.421Z,26.77
2018-11-26T20:58:31.805Z,21.83
2018-11-26T21:02:34.397Z,25.30
2018-11-26T21:06:36.855Z,25.40
2018-11-26T21:10:40.159Z,30.20
2018-11-26T21:14:42.780Z,31.53
2018-11-26T21:18:45.266Z,33.77
2018-11-26T21:22:47.934Z,30.30
2018-11-26T21:26:50.419Z,31.43
2018-11-26T21:31:00.053Z,29.80
2018-11-26T21:35:03.277Z,27.93
2018-11-26T21:39:08.446Z,27.70
2018-11-26T21:43:15.047Z,29.73
2018-11-26T21:47:17.400Z,29.90
2018-11-26T21:51:20.131Z,31.43
2018-11-26T21:55:23.267Z,26.57
2018-11-26T21:59:25.591Z,28.57
2018-11-26T22:03:30.626Z,25.57
2018-11-26T22:07:31.503Z,24.60
2018-11-26T22:11:33.847Z,22.20
2018-11-26T22:15:37.572Z,21.83
2018-11-26T22:19:39.921Z,22.70
2018-11-26T22:23:42.226Z,22.73
2018-11-26T22:27:44.664Z,23.53
2018-11-26T22:31:47.077Z,25.87
2018-11-26T22:35:49.384Z,25.87
2018-11-26T22:39:52.911Z,26.73
2018-11-26T22:43:57.789Z,26.07
2018-11-26T22:48:11.094Z,24.10
2018-11-26T22:52:13.539Z,26.67
2018-11-26T22:56:15.959Z,30.23
2018-11-26T23:00:22.406Z,31.67
2018-11-26T23:04:24.884Z,25.10
2018-11-26T23:08:27.344Z,27.80
2018-11-26T23:12:29.779Z,27.70
2018-11-26T23:16:32.153Z,24.73
2018-11-26T23:20:34.580Z,27.83
2018-11-26T23:24:37.070Z,23.93
2018-11-26T23:28:39.545Z,29.70
2018-11-26T23:32:42.099Z,24.17
2018-11-26T23:36:44.419Z,24.90
2018-11-26T23:40:46.808Z,26.80
2018-11-26T23:44:49.179Z,27.60
2018-11-26T23:48:51.529Z,27.43
2018-11-26T23:52:54.010Z,28.80
2018-11-26T23:56:56.390Z,26.03
